Flight Track Log - Related Links

Times and Time Zones

All times are in EDT time to prevent confusion due to time zone crossing. See the SWA1688 flight status page for this flight to view local times or setup timezone preferences in your user account.

Time Position Orientation Groundspeed Altitude Reporting Facility
EDT Latitude Longitude Course Direction KTS MPH feet Rate Location/Type
Sat 08:24:27 AM 38.7833 -90.4000 83° East 179 206 2,300  Level Gateway (St. Louis) TRACON
Sat 08:25:10 AM 38.8081 -90.4069 348° North 201 231 3,600 1,962 Climbing Kansas City Center
Sat 08:26:11 AM 38.8672 -90.3867 15° North 240 276 5,700 2,852 Climbing Kansas City Center
Sat 08:27:12 AM 38.8550 -90.2886 99° East 270 311 9,400 3,366 Climbing Kansas City Center
Sat 08:28:14 AM 38.8444 -90.1467 95° East 329 379 12,600 3,073 Climbing Kansas City Center
Sat 08:29:00 AM 38.8237 -89.5030 83° East  Level Estimated
Sat 08:29:15 AM 38.8347 -90.0192 96° East 359 413 15,700  Level Kansas City Center
Sat 08:30:16 AM 38.8231 -89.8756 96° East 382 440 18,800 2,902 Climbing Kansas City Center
Sat 08:31:17 AM 38.8111 -89.7294 96° East 402 463 21,600 2,754 Climbing Kansas City Center
Sat 08:32:18 AM 38.7978 -89.5756 96° East 418 481 24,400 2,557 Climbing Kansas City Center
Sat 08:33:19 AM 38.8019 -89.4258 88° East 423 487 26,800 2,164 Climbing Kansas City Center
Sat 08:34:20 AM 38.8244 -89.2589 80° East 441 507 28,800 1,951 Climbing Kansas City Center
Sat 08:35:22 AM 38.8442 -89.1003 81° East 451 519 30,800 1,463 Climbing Kansas City Center
Sat 08:36:23 AM 38.8625 -88.9558 81° East 460 529 31,800 1,650 Climbing Kansas City Center
Sat 08:37:22 AM 38.8853 -88.7903 80° East 470 541 34,100 1,587 Climbing Kansas City Center
Sat 08:38:24 AM 38.9086 -88.6022 81° East 459 528 35,000 443 Climbing Kansas City Center
Sat 08:39:24 AM 38.9311 -88.4428 80° East 454 522 35,000 532 Level Kansas City Center
Sat 08:40:28 AM 38.9731 -88.2947 70° East 439 505 36,100 960 Climbing Kansas City Center
Sat 08:41:29 AM 39.0153 -88.1414 70° East 442 509 37,000 893 Climbing Kansas City Center
Sat 08:42:29 AM 39.0594 -87.9844 70° East 459 528 37,900 992 Climbing Indianapolis Center
Sat 08:43:30 AM 39.0883 -87.8181 77° East 471 542 39,000 541 Climbing Indianapolis Center
Sat 08:44:31 AM 39.1156 -87.6533 78° East 469 540 39,000  Level Indianapolis Center
Sat 08:45:33 AM 39.1431 -87.4906 78° East 464 534 39,000  Level Indianapolis Center
Sat 08:46:34 AM 39.1683 -87.3278 79° East 465 535 39,000 -934 Level Indianapolis Center
Sat 08:47:35 AM 39.1942 -87.1672 78° East 463 533 37,100 -976 Descending Indianapolis Center
Sat 08:48:37 AM 39.2256 -86.9731 78° East 464 534 37,000 -49 Descending Indianapolis Center
Sat 08:49:38 AM 39.2503 -86.8111 79° East 464 534 37,000  Level Indianapolis Center
Sat 08:50:39 AM 39.2747 -86.6486 79° East 465 535 37,000  Level Indianapolis Center
Sat 08:51:40 AM 39.2997 -86.4856 79° East 468 539 37,000  Level Indianapolis Center
Sat 08:52:42 AM 39.3247 -86.3228 79° East 469 540 37,000  Level Indianapolis Center
Sat 08:53:43 AM 39.3494 -86.1614 79° East 465 535 37,000  Level Indianapolis Center
Sat 08:54:44 AM 39.3733 -85.9983 79° East 467 537 37,000  Level Indianapolis Center
Sat 08:55:46 AM 39.4022 -85.8014 79° East 470 541 37,000  Level Indianapolis Center
Sat 08:56:47 AM 39.4253 -85.6375 80° East 468 539 37,000  Level Indianapolis Center
Sat 08:57:49 AM 39.4500 -85.4731 79° East 471 542 37,000  Level Indianapolis Center
Sat 08:58:50 AM 39.4722 -85.3089 80° East 468 539 37,000  Level Indianapolis Center
Sat 08:59:51 AM 39.4956 -85.1464 79° East 464 534 37,000  Level Indianapolis Center
Sat 09:00:53 AM 39.5189 -84.9825 79° East 465 535 37,000  Level Indianapolis Center
Sat 09:01:54 AM 39.5458 -84.7889 80° East 465 535 37,000  Level Indianapolis Center
Sat 09:02:55 AM 39.5678 -84.6217 80° East 467 537 37,000  Level Indianapolis Center
Sat 09:03:57 AM 39.5914 -84.4536 80° East 470 541 37,000  Level Indianapolis Center
Sat 09:04:58 AM 39.6122 -84.2831 81° East 475 547 37,000  Level Indianapolis Center
Sat 09:06:00 AM 39.6350 -84.1119 80° East 478 550 37,000  Level Indianapolis Center
Sat 09:07:01 AM 39.6578 -83.9403 80° East 481 554 37,000  Level Indianapolis Center
Sat 09:08:02 AM 39.6808 -83.7706 80° East 476 548 37,000  Level Indianapolis Center
Sat 09:09:04 AM 39.7236 -83.6050 71° East 483 556 37,000  Level Indianapolis Center
Sat 09:10:05 AM 39.7669 -83.4375 71° East 483 556 37,000  Level Indianapolis Center
Sat 09:11:07 AM 39.8142 -83.2508 72° East 486 559 37,000  Level Indianapolis Center
Sat 09:12:08 AM 39.8367 -83.0828 80° East 472 543 37,000  Level Indianapolis Center
Sat 09:13:10 AM 39.8394 -82.9081 89° East 478 550 37,000  Level Indianapolis Center
Sat 09:14:11 AM 39.8428 -82.7356 89° East 474 545 37,000  Level Indianapolis Center
Sat 09:15:13 AM 39.8456 -82.5611 89° East 477 549 37,000  Level Indianapolis Center
Sat 09:16:14 AM 39.8483 -82.3889 89° East 475 547 37,000  Level Indianapolis Center
Sat 09:17:16 AM 39.8511 -82.2156 89° East 474 545 37,000  Level Indianapolis Center
Sat 09:18:18 AM 39.8528 -82.0436 89° East 474 545 37,000  Level Indianapolis Center
Sat 09:19:19 AM 39.8547 -81.8708 89° East 473 544 37,000  Level Indianapolis Center
Sat 09:20:21 AM 39.8567 -81.6978 89° East 474 545 37,000  Level Indianapolis Center
Sat 09:21:22 AM 39.8567 -81.4958 90° East 475 547 37,000  Level Indianapolis Center
Sat 09:22:24 AM 39.8447 -81.3456 96° East 474 545 37,000  Level Indianapolis Center
Sat 09:23:25 AM 39.8317 -81.1733 96° East 475 547 37,000 -195 Level Indianapolis Center
Sat 09:24:27 AM 39.8192 -81.0014 95° East 476 548 36,600 -774 Descending Indianapolis Center
Sat 09:25:29 AM 39.8031 -80.7956 96° East 474 545 35,400 -780 Descending Indianapolis Center
Sat 09:26:30 AM 39.7903 -80.6258 96° East 471 542 35,000 -195 Descending Indianapolis Center
Sat 09:27:32 AM 39.7769 -80.4564 96° East 470 541 35,000  Level Indianapolis Center
Sat 09:28:34 AM 39.7639 -80.2872 96° East 469 540 35,000  Level Indianapolis Center
Sat 09:29:44 AM 39.7492 -80.0781 95° East 470 541 35,000  Level Cleveland Center
Sat 09:31:22 AM 39.7269 -79.8247 96° East 465 535 35,000 -906 Level Washington Center
Sat 09:32:23 AM 39.7119 -79.6539 96° East 465 535 32,600 -4,959 Descending Washington Center
Sat 09:33:23 AM 39.6986 -79.4886 96° East 465 535 25,000 -2,237 Descending Washington Center
Sat 09:34:21 AM 39.6869 -79.3317 95° East 455 524 28,200 555 Climbing Washington Center
Sat 09:35:22 AM 39.6728 -79.1772 97° East 437 503 26,100 -1,574 Descending Washington Center
Sat 09:36:23 AM 39.6500 -79.0306 101° East 424 488 25,000 -555 Descending Washington Center
Sat 09:37:21 AM 39.6150 -78.8725 106° East 411 473 25,000 -807 Level Washington Center
Sat 09:38:22 AM 39.5853 -78.7367 106° East 406 467 23,400 -1,750 Descending Washington Center
Sat 09:39:21 AM 39.5553 -78.6008 106° East 401 461 21,500 -1,916 Descending Washington Center
Sat 09:40:21 AM 39.5231 -78.4647 107° East 396 456 19,600 -1,835 Descending Washington Center
Sat 09:41:22 AM 39.4950 -78.3319 105° East 386 444 17,800 -1,820 Descending Washington Center
Sat 09:42:23 AM 39.4667 -78.2044 106° East 380 437 15,900 -1,400 Descending Washington Center
Sat 09:43:22 AM 39.4506 -78.0750 99° East 374 430 15,000 -454 Descending Washington Center
Sat 09:44:22 AM 39.4489 -77.9458 91° East 368 423 15,000  Level Washington Center
Sat 09:45:22 AM 39.4494 -77.8169 90° East 363 418 15,000  Level Washington Center
Sat 09:46:21 AM 39.4472 -77.7011 91° East 363 418 15,000 -610 Level Washington Center
Sat 09:47:20 AM 39.4472 -77.5750 90° East 358 412 13,800 -1,450 Descending Washington Center
Sat 09:48:21 AM 39.4453 -77.4486 91° East 348 400 12,100 -1,585 Descending Washington Center
Sat 09:49:06 AM 39.4500 -77.3333 87° East 341 392 11,000 -667 Descending Potomac TRACON
Sat 09:50:00 AM 39.4667 -77.2333 78° East 336 387 11,000 -263 Level Potomac TRACON
Sat 09:51:00 AM 39.4667 -77.1167 90° East 332 382 10,500 -950 Descending Potomac TRACON
Sat 09:52:00 AM 39.4667 -77.0000 90° East 319 367 9,100 -1,400 Descending Potomac TRACON
Sat 09:53:00 AM 39.4833 -76.9000 78° East 305 351 7,700 -1,421 Descending Potomac TRACON
Sat 09:53:54 AM 39.4833 -76.8000 90° East 304 350 6,400 -1,444 Descending Potomac TRACON
Sat 09:54:48 AM 39.4833 -76.7000 90° East 294 338 5,100 -1,000 Descending Potomac TRACON
Sat 09:55:54 AM 39.4500 -76.6000 113° Southeast 286 329 4,400 -520 Descending Potomac TRACON
Sat 09:56:55 AM 39.4000 -76.5333 134° Southeast 270 311 4,000 -209 Descending Potomac TRACON
Sat 09:57:49 AM 39.3500 -76.4667 134° Southeast 273 314 4,000 -211 Level Potomac TRACON
Sat 09:58:49 AM 39.2833 -76.4500 169° South 256 295 3,600 -500 Descending Potomac TRACON
Sat 09:59:49 AM 39.2167 -76.4500 180° South 244 281 3,000 -316 Descending Potomac TRACON
Sat 10:00:43 AM 39.1667 -76.4833 207° Southwest 214 246 3,000 -526 Level Potomac TRACON
Sat 10:01:43 AM 39.1167 -76.5167 207° Southwest 216 249 2,000 -750 Descending Potomac TRACON
Sat 10:02:43 AM 39.1167 -76.5833 270° West 165 190 1,500 -400 Descending Potomac TRACON
Sat 10:03:43 AM 39.1167 -76.6167 270° West 149 171 1,200 -550 Descending Potomac TRACON
Sat 10:04:43 AM 39.1500 -76.6500 322° Northwest 133 153 400 -800 Descending Potomac TRACON

Login

Don't have an account? Register now (free) for customized features, flight alerts, and more!